sensor_id;sensor_type;location;lat;lon;timestamp;P1;durP1;ratioP1;P2;durP2;ratioP2
48327;SDS011;34136;51.022;7.082;2022-07-29T00:49:21;8.57;;;1.25;;
48327;SDS011;34136;51.022;7.082;2022-07-29T00:52:07;3.47;;;1.30;;
48327;SDS011;34136;51.022;7.082;2022-07-29T00:54:55;4.75;;;1.13;;
48327;SDS011;34136;51.022;7.082;2022-07-29T00:57:42;4.93;;;1.55;;
48327;SDS011;34136;51.022;7.082;2022-07-29T01:00:30;5.97;;;1.40;;
48327;SDS011;34136;51.022;7.082;2022-07-29T01:03:16;4.22;;;1.30;;
48327;SDS011;34136;51.022;7.082;2022-07-29T01:06:03;4.88;;;1.20;;
48327;SDS011;34136;51.022;7.082;2022-07-29T01:08:50;2.50;;;1.20;;
48327;SDS011;34136;51.022;7.082;2022-07-29T01:11:37;3.55;;;1.50;;
48327;SDS011;34136;51.022;7.082;2022-07-29T01:14:24;3.63;;;1.60;;
48327;SDS011;34136;51.022;7.082;2022-07-29T01:17:14;5.20;;;1.80;;
48327;SDS011;34136;51.022;7.082;2022-07-29T01:23:34;9.27;;;1.38;;
48327;SDS011;34136;51.022;7.082;2022-07-29T01:29:41;6.25;;;1.70;;
48327;SDS011;34136;51.022;7.082;2022-07-29T01:32:33;6.07;;;1.50;;
48327;SDS011;34136;51.022;7.082;2022-07-29T01:35:26;3.90;;;1.58;;
48327;SDS011;34136;51.022;7.082;2022-07-29T01:38:19;6.72;;;1.40;;
48327;SDS011;34136;51.022;7.082;2022-07-29T01:41:12;5.10;;;1.52;;
48327;SDS011;34136;51.022;7.082;2022-07-29T01:44:02;3.60;;;1.45;;
48327;SDS011;34136;51.022;7.082;2022-07-29T01:47:10;2.63;;;1.10;;
48327;SDS011;34136;51.022;7.082;2022-07-29T01:50:01;4.05;;;1.45;;
48327;SDS011;34136;51.022;7.082;2022-07-29T01:52:56;5.47;;;1.50;;
48327;SDS011;34136;51.022;7.082;2022-07-29T01:55:44;4.30;;;1.65;;
48327;SDS011;34136;51.022;7.082;2022-07-29T01:58:32;9.13;;;2.00;;
48327;SDS011;34136;51.022;7.082;2022-07-29T02:01:20;3.28;;;1.30;;
48327;SDS011;34136;51.022;7.082;2022-07-29T02:04:09;3.83;;;1.20;;
48327;SDS011;34136;51.022;7.082;2022-07-29T02:06:58;3.97;;;1.45;;
48327;SDS011;34136;51.022;7.082;2022-07-29T02:09:49;4.53;;;1.90;;
48327;SDS011;34136;51.022;7.082;2022-07-29T02:12:37;7.18;;;1.40;;
48327;SDS011;34136;51.022;7.082;2022-07-29T02:15:25;3.00;;;1.30;;
48327;SDS011;34136;51.022;7.082;2022-07-29T02:18:15;5.57;;;1.48;;
48327;SDS011;34136;51.022;7.082;2022-07-29T02:21:03;3.45;;;1.40;;
48327;SDS011;34136;51.022;7.082;2022-07-29T02:23:50;3.47;;;1.50;;
48327;SDS011;34136;51.022;7.082;2022-07-29T02:26:38;5.03;;;1.33;;
48327;SDS011;34136;51.022;7.082;2022-07-29T02:29:26;5.13;;;1.38;;
48327;SDS011;34136;51.022;7.082;2022-07-29T02:32:15;4.38;;;1.65;;
48327;SDS011;34136;51.022;7.082;2022-07-29T02:35:03;5.00;;;1.40;;
48327;SDS011;34136;51.022;7.082;2022-07-29T02:37:51;4.63;;;1.40;;
48327;SDS011;34136;51.022;7.082;2022-07-29T02:40:38;5.15;;;1.60;;
48327;SDS011;34136;51.022;7.082;2022-07-29T02:43:27;3.92;;;1.40;;
48327;SDS011;34136;51.022;7.082;2022-07-29T02:46:21;5.38;;;1.58;;
48327;SDS011;34136;51.022;7.082;2022-07-29T02:49:15;4.82;;;1.35;;
48327;SDS011;34136;51.022;7.082;2022-07-29T02:55:10;4.65;;;1.70;;
48327;SDS011;34136;51.022;7.082;2022-07-29T02:58:13;3.53;;;1.33;;
48327;SDS011;34136;51.022;7.082;2022-07-29T03:01:09;4.13;;;1.10;;
48327;SDS011;34136;51.022;7.082;2022-07-29T03:04:00;4.75;;;1.75;;
48327;SDS011;34136;51.022;7.082;2022-07-29T03:06:49;3.33;;;1.20;;
48327;SDS011;34136;51.022;7.082;2022-07-29T03:09:38;4.63;;;1.50;;
48327;SDS011;34136;51.022;7.082;2022-07-29T03:12:26;6.57;;;1.40;;
48327;SDS011;34136;51.022;7.082;2022-07-29T03:15:14;5.82;;;1.60;;
48327;SDS011;34136;51.022;7.082;2022-07-29T03:18:01;4.45;;;1.48;;
48327;SDS011;34136;51.022;7.082;2022-07-29T03:20:48;6.25;;;1.63;;
48327;SDS011;34136;51.022;7.082;2022-07-29T03:23:35;2.85;;;1.23;;
48327;SDS011;34136;51.022;7.082;2022-07-29T03:26:21;5.03;;;1.58;;
48327;SDS011;34136;51.022;7.082;2022-07-29T03:29:07;6.40;;;1.80;;
48327;SDS011;34136;51.022;7.082;2022-07-29T03:31:54;4.93;;;1.85;;
48327;SDS011;34136;51.022;7.082;2022-07-29T03:34:40;9.82;;;1.85;;
48327;SDS011;34136;51.022;7.082;2022-07-29T03:37:26;4.25;;;2.00;;
48327;SDS011;34136;51.022;7.082;2022-07-29T03:41:05;3.35;;;1.67;;
48327;SDS011;34136;51.022;7.082;2022-07-29T03:43:38;5.35;;;2.13;;
48327;SDS011;34136;51.022;7.082;2022-07-29T03:46:26;5.63;;;1.90;;
48327;SDS011;34136;51.022;7.082;2022-07-29T03:49:16;4.47;;;1.98;;
48327;SDS011;34136;51.022;7.082;2022-07-29T03:52:03;4.50;;;2.05;;
48327;SDS011;34136;51.022;7.082;2022-07-29T03:54:50;5.28;;;1.70;;
48327;SDS011;34136;51.022;7.082;2022-07-29T03:57:37;4.03;;;1.88;;
48327;SDS011;34136;51.022;7.082;2022-07-29T04:00:25;6.13;;;1.90;;
48327;SDS011;34136;51.022;7.082;2022-07-29T04:03:13;7.68;;;1.90;;
48327;SDS011;34136;51.022;7.082;2022-07-29T04:06:00;7.57;;;1.88;;
48327;SDS011;34136;51.022;7.082;2022-07-29T04:08:47;7.35;;;1.88;;
48327;SDS011;34136;51.022;7.082;2022-07-29T04:11:34;6.63;;;2.30;;
48327;SDS011;34136;51.022;7.082;2022-07-29T04:14:22;7.22;;;2.05;;
48327;SDS011;34136;51.022;7.082;2022-07-29T04:17:08;8.30;;;2.60;;
48327;SDS011;34136;51.022;7.082;2022-07-29T04:19:54;10.00;;;2.20;;
48327;SDS011;34136;51.022;7.082;2022-07-29T04:22:41;6.65;;;2.17;;
48327;SDS011;34136;51.022;7.082;2022-07-29T04:25:27;9.07;;;2.30;;
48327;SDS011;34136;51.022;7.082;2022-07-29T04:28:13;5.47;;;2.58;;
48327;SDS011;34136;51.022;7.082;2022-07-29T04:31:00;5.97;;;2.30;;
48327;SDS011;34136;51.022;7.082;2022-07-29T04:33:46;4.22;;;2.15;;
48327;SDS011;34136;51.022;7.082;2022-07-29T04:36:32;5.90;;;2.25;;
48327;SDS011;34136;51.022;7.082;2022-07-29T04:39:18;5.00;;;2.30;;
48327;SDS011;34136;51.022;7.082;2022-07-29T04:42:05;6.18;;;2.08;;
48327;SDS011;34136;51.022;7.082;2022-07-29T04:44:51;9.43;;;2.63;;
48327;SDS011;34136;51.022;7.082;2022-07-29T04:47:37;7.00;;;2.30;;
48327;SDS011;34136;51.022;7.082;2022-07-29T04:50:24;5.35;;;2.08;;
48327;SDS011;34136;51.022;7.082;2022-07-29T04:53:10;5.85;;;2.03;;
48327;SDS011;34136;51.022;7.082;2022-07-29T04:55:56;6.53;;;1.92;;
48327;SDS011;34136;51.022;7.082;2022-07-29T04:58:43;8.15;;;2.13;;
48327;SDS011;34136;51.022;7.082;2022-07-29T05:01:29;5.80;;;2.00;;
48327;SDS011;34136;51.022;7.082;2022-07-29T05:04:15;5.93;;;2.08;;
48327;SDS011;34136;51.022;7.082;2022-07-29T05:07:01;7.13;;;1.90;;
48327;SDS011;34136;51.022;7.082;2022-07-29T05:09:47;7.07;;;2.00;;
48327;SDS011;34136;51.022;7.082;2022-07-29T05:12:34;11.00;;;2.58;;
48327;SDS011;34136;51.022;7.082;2022-07-29T05:15:20;7.15;;;2.00;;
48327;SDS011;34136;51.022;7.082;2022-07-29T05:18:06;6.25;;;2.03;;
48327;SDS011;34136;51.022;7.082;2022-07-29T05:20:52;5.63;;;1.85;;
48327;SDS011;34136;51.022;7.082;2022-07-29T05:23:38;6.72;;;1.80;;
48327;SDS011;34136;51.022;7.082;2022-07-29T05:26:25;5.72;;;2.00;;
48327;SDS011;34136;51.022;7.082;2022-07-29T05:29:11;5.53;;;2.30;;
48327;SDS011;34136;51.022;7.082;2022-07-29T05:31:57;7.40;;;2.20;;
48327;SDS011;34136;51.022;7.082;2022-07-29T05:34:43;8.18;;;2.20;;
48327;SDS011;34136;51.022;7.082;2022-07-29T05:37:29;7.50;;;1.80;;
48327;SDS011;34136;51.022;7.082;2022-07-29T05:40:16;5.47;;;2.63;;
48327;SDS011;34136;51.022;7.082;2022-07-29T05:43:02;6.20;;;2.15;;
48327;SDS011;34136;51.022;7.082;2022-07-29T05:45:48;6.80;;;2.10;;
48327;SDS011;34136;51.022;7.082;2022-07-29T05:48:34;6.63;;;2.08;;
48327;SDS011;34136;51.022;7.082;2022-07-29T05:51:20;4.25;;;1.90;;
48327;SDS011;34136;51.022;7.082;2022-07-29T05:54:06;6.93;;;2.20;;
48327;SDS011;34136;51.022;7.082;2022-07-29T05:56:53;6.22;;;1.88;;
48327;SDS011;34136;51.022;7.082;2022-07-29T05:59:39;5.35;;;1.83;;
48327;SDS011;34136;51.022;7.082;2022-07-29T06:02:25;6.65;;;2.30;;
48327;SDS011;34136;51.022;7.082;2022-07-29T06:05:11;5.13;;;1.98;;
48327;SDS011;34136;51.022;7.082;2022-07-29T06:07:57;10.48;;;2.10;;
48327;SDS011;34136;51.022;7.082;2022-07-29T06:10:44;8.48;;;2.08;;
48327;SDS011;34136;51.022;7.082;2022-07-29T06:13:31;5.68;;;2.20;;
48327;SDS011;34136;51.022;7.082;2022-07-29T06:16:18;4.65;;;1.92;;
48327;SDS011;34136;51.022;7.082;2022-07-29T06:19:04;9.23;;;2.20;;
48327;SDS011;34136;51.022;7.082;2022-07-29T06:21:51;7.40;;;1.90;;
48327;SDS011;34136;51.022;7.082;2022-07-29T06:24:38;5.00;;;2.17;;
48327;SDS011;34136;51.022;7.082;2022-07-29T06:27:24;4.22;;;1.77;;
48327;SDS011;34136;51.022;7.082;2022-07-29T06:30:10;8.25;;;2.88;;
48327;SDS011;34136;51.022;7.082;2022-07-29T06:32:57;6.10;;;1.80;;
48327;SDS011;34136;51.022;7.082;2022-07-29T06:35:43;10.07;;;1.92;;
48327;SDS011;34136;51.022;7.082;2022-07-29T06:38:29;6.22;;;1.88;;
48327;SDS011;34136;51.022;7.082;2022-07-29T06:41:15;5.03;;;1.80;;
48327;SDS011;34136;51.022;7.082;2022-07-29T06:44:02;4.68;;;1.85;;
48327;SDS011;34136;51.022;7.082;2022-07-29T06:46:48;5.35;;;1.80;;
48327;SDS011;34136;51.022;7.082;2022-07-29T06:49:34;8.57;;;1.80;;
48327;SDS011;34136;51.022;7.082;2022-07-29T06:52:20;5.90;;;1.90;;
48327;SDS011;34136;51.022;7.082;2022-07-29T06:55:06;5.50;;;2.10;;
48327;SDS011;34136;51.022;7.082;2022-07-29T06:57:53;5.43;;;1.85;;
48327;SDS011;34136;51.022;7.082;2022-07-29T07:00:39;9.57;;;2.03;;
48327;SDS011;34136;51.022;7.082;2022-07-29T07:03:25;6.45;;;1.90;;
48327;SDS011;34136;51.022;7.082;2022-07-29T07:06:12;6.40;;;2.10;;
48327;SDS011;34136;51.022;7.082;2022-07-29T07:08:58;6.75;;;2.30;;
48327;SDS011;34136;51.022;7.082;2022-07-29T07:11:44;6.18;;;2.20;;
48327;SDS011;34136;51.022;7.082;2022-07-29T07:14:30;7.35;;;2.10;;
48327;SDS011;34136;51.022;7.082;2022-07-29T07:17:16;10.25;;;2.80;;
48327;SDS011;34136;51.022;7.082;2022-07-29T07:20:02;9.32;;;1.83;;
48327;SDS011;34136;51.022;7.082;2022-07-29T07:22:49;5.85;;;1.80;;
48327;SDS011;34136;51.022;7.082;2022-07-29T07:25:35;6.35;;;1.90;;
48327;SDS011;34136;51.022;7.082;2022-07-29T07:28:22;4.75;;;2.10;;
48327;SDS011;34136;51.022;7.082;2022-07-29T07:31:08;4.70;;;1.88;;
48327;SDS011;34136;51.022;7.082;2022-07-29T07:33:54;6.20;;;1.88;;
48327;SDS011;34136;51.022;7.082;2022-07-29T07:36:40;5.75;;;1.98;;
48327;SDS011;34136;51.022;7.082;2022-07-29T07:39:26;8.27;;;2.08;;
48327;SDS011;34136;51.022;7.082;2022-07-29T07:42:12;9.75;;;1.98;;
48327;SDS011;34136;51.022;7.082;2022-07-29T07:44:59;9.40;;;2.05;;
48327;SDS011;34136;51.022;7.082;2022-07-29T07:47:45;5.93;;;2.00;;
48327;SDS011;34136;51.022;7.082;2022-07-29T07:50:31;7.10;;;1.80;;
48327;SDS011;34136;51.022;7.082;2022-07-29T07:53:17;8.95;;;2.08;;
48327;SDS011;34136;51.022;7.082;2022-07-29T07:56:03;9.57;;;1.95;;
48327;SDS011;34136;51.022;7.082;2022-07-29T07:58:49;8.70;;;1.88;;
48327;SDS011;34136;51.022;7.082;2022-07-29T08:01:35;8.20;;;1.80;;
48327;SDS011;34136;51.022;7.082;2022-07-29T08:04:22;7.40;;;1.88;;
48327;SDS011;34136;51.022;7.082;2022-07-29T08:07:08;10.68;;;2.80;;
48327;SDS011;34136;51.022;7.082;2022-07-29T08:09:54;5.35;;;2.20;;
48327;SDS011;34136;51.022;7.082;2022-07-29T08:12:41;7.22;;;2.15;;
48327;SDS011;34136;51.022;7.082;2022-07-29T08:15:27;8.32;;;2.20;;
48327;SDS011;34136;51.022;7.082;2022-07-29T08:18:13;6.90;;;2.28;;
48327;SDS011;34136;51.022;7.082;2022-07-29T08:20:59;10.50;;;2.50;;
48327;SDS011;34136;51.022;7.082;2022-07-29T08:23:45;5.05;;;1.80;;
48327;SDS011;34136;51.022;7.082;2022-07-29T08:26:31;6.13;;;1.90;;
48327;SDS011;34136;51.022;7.082;2022-07-29T08:29:17;6.43;;;2.20;;
48327;SDS011;34136;51.022;7.082;2022-07-29T08:32:04;6.22;;;2.10;;
48327;SDS011;34136;51.022;7.082;2022-07-29T08:34:51;12.10;;;2.22;;
48327;SDS011;34136;51.022;7.082;2022-07-29T08:37:36;6.70;;;1.92;;
48327;SDS011;34136;51.022;7.082;2022-07-29T08:40:23;5.63;;;1.80;;
48327;SDS011;34136;51.022;7.082;2022-07-29T08:43:09;5.93;;;2.13;;
48327;SDS011;34136;51.022;7.082;2022-07-29T08:45:55;4.95;;;2.30;;
48327;SDS011;34136;51.022;7.082;2022-07-29T08:48:42;6.00;;;2.30;;
48327;SDS011;34136;51.022;7.082;2022-07-29T08:51:28;7.40;;;2.50;;
48327;SDS011;34136;51.022;7.082;2022-07-29T08:54:16;15.73;;;2.60;;
48327;SDS011;34136;51.022;7.082;2022-07-29T08:57:03;4.47;;;2.00;;
48327;SDS011;34136;51.022;7.082;2022-07-29T08:59:50;14.43;;;2.50;;
48327;SDS011;34136;51.022;7.082;2022-07-29T09:02:39;13.43;;;2.47;;
48327;SDS011;34136;51.022;7.082;2022-07-29T09:05:28;7.22;;;2.05;;
48327;SDS011;34136;51.022;7.082;2022-07-29T09:08:15;8.52;;;2.20;;
48327;SDS011;34136;51.022;7.082;2022-07-29T09:11:02;8.00;;;2.13;;
48327;SDS011;34136;51.022;7.082;2022-07-29T09:13:49;10.38;;;2.22;;
48327;SDS011;34136;51.022;7.082;2022-07-29T09:19:31;7.85;;;2.08;;
48327;SDS011;34136;51.022;7.082;2022-07-29T09:22:28;4.82;;;1.75;;
48327;SDS011;34136;51.022;7.082;2022-07-29T09:28:22;8.07;;;2.30;;
48327;SDS011;34136;51.022;7.082;2022-07-29T09:31:08;5.00;;;1.95;;
48327;SDS011;34136;51.022;7.082;2022-07-29T09:33:54;6.45;;;1.70;;
48327;SDS011;34136;51.022;7.082;2022-07-29T09:36:43;7.97;;;2.20;;
48327;SDS011;34136;51.022;7.082;2022-07-29T09:39:32;8.20;;;2.10;;
48327;SDS011;34136;51.022;7.082;2022-07-29T09:42:29;5.43;;;2.35;;
48327;SDS011;34136;51.022;7.082;2022-07-29T09:45:31;9.10;;;2.65;;
48327;SDS011;34136;51.022;7.082;2022-07-29T09:48:23;11.13;;;2.35;;
48327;SDS011;34136;51.022;7.082;2022-07-29T09:51:17;10.50;;;2.30;;
48327;SDS011;34136;51.022;7.082;2022-07-29T09:54:25;6.35;;;2.13;;
48327;SDS011;34136;51.022;7.082;2022-07-29T09:57:21;10.77;;;2.33;;
48327;SDS011;34136;51.022;7.082;2022-07-29T10:00:10;9.70;;;2.45;;
48327;SDS011;34136;51.022;7.082;2022-07-29T10:02:58;5.45;;;2.30;;
48327;SDS011;34136;51.022;7.082;2022-07-29T10:05:46;4.95;;;2.05;;
48327;SDS011;34136;51.022;7.082;2022-07-29T10:09:08;9.52;;;2.50;;
48327;SDS011;34136;51.022;7.082;2022-07-29T10:12:10;7.28;;;2.58;;
48327;SDS011;34136;51.022;7.082;2022-07-29T10:14:58;9.15;;;2.42;;
48327;SDS011;34136;51.022;7.082;2022-07-29T10:17:46;8.30;;;2.60;;
48327;SDS011;34136;51.022;7.082;2022-07-29T10:20:33;6.97;;;2.30;;
48327;SDS011;34136;51.022;7.082;2022-07-29T10:23:20;7.93;;;3.00;;
48327;SDS011;34136;51.022;7.082;2022-07-29T10:26:06;9.48;;;2.70;;
48327;SDS011;34136;51.022;7.082;2022-07-29T10:28:53;8.27;;;3.20;;
48327;SDS011;34136;51.022;7.082;2022-07-29T12:25:46;6.75;;;2.78;;
48327;SDS011;34136;51.022;7.082;2022-07-29T12:28:35;10.00;;;2.97;;
48327;SDS011;34136;51.022;7.082;2022-07-29T12:31:24;7.22;;;2.47;;
48327;SDS011;34136;51.022;7.082;2022-07-29T12:34:11;7.82;;;2.50;;
48327;SDS011;34136;51.022;7.082;2022-07-29T12:36:58;6.50;;;2.65;;
48327;SDS011;34136;51.022;7.082;2022-07-29T12:39:45;8.90;;;2.17;;
48327;SDS011;34136;51.022;7.082;2022-07-29T12:42:31;7.68;;;2.38;;
48327;SDS011;34136;51.022;7.082;2022-07-29T12:45:27;6.43;;;2.55;;
48327;SDS011;34136;51.022;7.082;2022-07-29T12:48:15;7.82;;;2.80;;
48327;SDS011;34136;51.022;7.082;2022-07-29T12:51:03;6.72;;;2.75;;
48327;SDS011;34136;51.022;7.082;2022-07-29T12:56:59;7.55;;;2.30;;
48327;SDS011;34136;51.022;7.082;2022-07-29T12:59:58;8.20;;;2.53;;
48327;SDS011;34136;51.022;7.082;2022-07-29T13:02:55;10.18;;;2.67;;
48327;SDS011;34136;51.022;7.082;2022-07-29T13:05:43;8.57;;;2.60;;
48327;SDS011;34136;51.022;7.082;2022-07-29T13:08:30;6.75;;;2.40;;
48327;SDS011;34136;51.022;7.082;2022-07-29T13:11:29;4.30;;;2.10;;
48327;SDS011;34136;51.022;7.082;2022-07-29T13:14:35;6.93;;;2.10;;
48327;SDS011;34136;51.022;7.082;2022-07-29T13:17:23;8.20;;;2.50;;
48327;SDS011;34136;51.022;7.082;2022-07-29T13:20:10;5.25;;;2.28;;
48327;SDS011;34136;51.022;7.082;2022-07-29T13:22:58;7.38;;;2.47;;
48327;SDS011;34136;51.022;7.082;2022-07-29T13:25:45;6.40;;;2.40;;
48327;SDS011;34136;51.022;7.082;2022-07-29T13:28:31;6.88;;;2.22;;
48327;SDS011;34136;51.022;7.082;2022-07-29T13:31:17;13.27;;;2.53;;
48327;SDS011;34136;51.022;7.082;2022-07-29T13:34:03;5.93;;;2.33;;
48327;SDS011;34136;51.022;7.082;2022-07-29T13:36:49;10.32;;;2.33;;
48327;SDS011;34136;51.022;7.082;2022-07-29T13:39:35;6.60;;;2.20;;
48327;SDS011;34136;51.022;7.082;2022-07-29T13:42:22;6.88;;;2.22;;
48327;SDS011;34136;51.022;7.082;2022-07-29T13:45:09;7.00;;;2.67;;
48327;SDS011;34136;51.022;7.082;2022-07-29T13:47:55;6.03;;;2.13;;
48327;SDS011;34136;51.022;7.082;2022-07-29T13:50:41;6.55;;;2.20;;
48327;SDS011;34136;51.022;7.082;2022-07-29T13:53:27;5.43;;;1.88;;
48327;SDS011;34136;51.022;7.082;2022-07-29T13:56:13;5.32;;;2.35;;
48327;SDS011;34136;51.022;7.082;2022-07-29T13:58:59;7.70;;;2.40;;
48327;SDS011;34136;51.022;7.082;2022-07-29T14:01:45;4.53;;;2.13;;
48327;SDS011;34136;51.022;7.082;2022-07-29T14:04:32;6.72;;;2.50;;
48327;SDS011;34136;51.022;7.082;2022-07-29T14:07:18;8.00;;;2.50;;
48327;SDS011;34136;51.022;7.082;2022-07-29T14:10:04;6.30;;;2.40;;
48327;SDS011;34136;51.022;7.082;2022-07-29T14:12:51;8.20;;;2.45;;
48327;SDS011;34136;51.022;7.082;2022-07-29T14:15:37;10.13;;;2.45;;
48327;SDS011;34136;51.022;7.082;2022-07-29T14:18:23;7.78;;;2.47;;
48327;SDS011;34136;51.022;7.082;2022-07-29T14:21:09;6.38;;;2.30;;
48327;SDS011;34136;51.022;7.082;2022-07-29T14:23:55;7.80;;;2.70;;
48327;SDS011;34136;51.022;7.082;2022-07-29T14:26:42;18.30;;;2.53;;
48327;SDS011;34136;51.022;7.082;2022-07-29T14:29:28;7.32;;;2.53;;
48327;SDS011;34136;51.022;7.082;2022-07-29T14:32:14;8.05;;;3.20;;
48327;SDS011;34136;51.022;7.082;2022-07-29T14:35:00;9.77;;;2.72;;
48327;SDS011;34136;51.022;7.082;2022-07-29T14:37:46;9.48;;;2.55;;
48327;SDS011;34136;51.022;7.082;2022-07-29T14:40:32;9.02;;;2.38;;
48327;SDS011;34136;51.022;7.082;2022-07-29T14:43:19;6.07;;;2.53;;
48327;SDS011;34136;51.022;7.082;2022-07-29T14:46:05;5.38;;;2.42;;
48327;SDS011;34136;51.022;7.082;2022-07-29T14:48:51;7.80;;;2.92;;
48327;SDS011;34136;51.022;7.082;2022-07-29T14:51:37;8.40;;;3.08;;
48327;SDS011;34136;51.022;7.082;2022-07-29T14:54:23;4.97;;;2.40;;
48327;SDS011;34136;51.022;7.082;2022-07-29T14:57:09;10.93;;;2.67;;
48327;SDS011;34136;51.022;7.082;2022-07-29T14:59:56;5.13;;;2.47;;
48327;SDS011;34136;51.022;7.082;2022-07-29T15:02:42;6.18;;;2.25;;
48327;SDS011;34136;51.022;7.082;2022-07-29T15:05:28;8.13;;;2.58;;
48327;SDS011;34136;51.022;7.082;2022-07-29T15:08:15;6.93;;;2.60;;
48327;SDS011;34136;51.022;7.082;2022-07-29T15:11:01;5.18;;;2.40;;
48327;SDS011;34136;51.022;7.082;2022-07-29T15:13:47;8.45;;;2.88;;
48327;SDS011;34136;51.022;7.082;2022-07-29T15:16:35;5.32;;;2.50;;
48327;SDS011;34136;51.022;7.082;2022-07-29T15:19:22;5.53;;;2.25;;
48327;SDS011;34136;51.022;7.082;2022-07-29T15:22:09;5.47;;;2.38;;
48327;SDS011;34136;51.022;7.082;2022-07-29T15:24:55;5.35;;;2.53;;
48327;SDS011;34136;51.022;7.082;2022-07-29T15:27:41;7.68;;;2.65;;
48327;SDS011;34136;51.022;7.082;2022-07-29T15:30:27;7.57;;;2.88;;
48327;SDS011;34136;51.022;7.082;2022-07-29T15:33:14;7.78;;;2.60;;
48327;SDS011;34136;51.022;7.082;2022-07-29T15:36:00;6.30;;;2.40;;
48327;SDS011;34136;51.022;7.082;2022-07-29T15:38:46;6.95;;;2.70;;
48327;SDS011;34136;51.022;7.082;2022-07-29T15:41:32;6.90;;;2.58;;
48327;SDS011;34136;51.022;7.082;2022-07-29T15:44:19;4.72;;;2.13;;
48327;SDS011;34136;51.022;7.082;2022-07-29T15:47:05;5.97;;;2.72;;
48327;SDS011;34136;51.022;7.082;2022-07-29T15:49:51;6.97;;;2.30;;
48327;SDS011;34136;51.022;7.082;2022-07-29T15:52:37;8.15;;;2.58;;
48327;SDS011;34136;51.022;7.082;2022-07-29T15:55:24;4.93;;;2.50;;
48327;SDS011;34136;51.022;7.082;2022-07-29T15:58:10;5.05;;;2.30;;
48327;SDS011;34136;51.022;7.082;2022-07-29T16:00:56;9.60;;;2.60;;
48327;SDS011;34136;51.022;7.082;2022-07-29T16:03:42;8.68;;;2.13;;
48327;SDS011;34136;51.022;7.082;2022-07-29T16:06:28;6.05;;;2.50;;
48327;SDS011;34136;51.022;7.082;2022-07-29T16:09:15;5.97;;;2.25;;
48327;SDS011;34136;51.022;7.082;2022-07-29T16:12:02;5.82;;;2.80;;
48327;SDS011;34136;51.022;7.082;2022-07-29T16:14:49;5.97;;;2.55;;
48327;SDS011;34136;51.022;7.082;2022-07-29T16:17:35;6.70;;;2.58;;
48327;SDS011;34136;51.022;7.082;2022-07-29T16:20:21;6.50;;;2.50;;
48327;SDS011;34136;51.022;7.082;2022-07-29T16:23:07;8.13;;;2.35;;
48327;SDS011;34136;51.022;7.082;2022-07-29T16:25:54;5.65;;;2.67;;
48327;SDS011;34136;51.022;7.082;2022-07-29T16:28:40;7.43;;;2.58;;
48327;SDS011;34136;51.022;7.082;2022-07-29T16:31:26;6.82;;;2.50;;
48327;SDS011;34136;51.022;7.082;2022-07-29T16:34:12;4.85;;;2.33;;
48327;SDS011;34136;51.022;7.082;2022-07-29T16:36:58;4.38;;;2.20;;
48327;SDS011;34136;51.022;7.082;2022-07-29T16:39:45;10.25;;;2.63;;
48327;SDS011;34136;51.022;7.082;2022-07-29T16:42:31;7.55;;;2.90;;
48327;SDS011;34136;51.022;7.082;2022-07-29T16:45:18;6.63;;;2.50;;
48327;SDS011;34136;51.022;7.082;2022-07-29T16:48:04;9.00;;;3.00;;
48327;SDS011;34136;51.022;7.082;2022-07-29T16:50:50;7.57;;;2.50;;
48327;SDS011;34136;51.022;7.082;2022-07-29T16:53:36;8.90;;;2.70;;
48327;SDS011;34136;51.022;7.082;2022-07-29T16:56:22;9.18;;;2.42;;
48327;SDS011;34136;51.022;7.082;2022-07-29T16:59:08;5.18;;;2.88;;
48327;SDS011;34136;51.022;7.082;2022-07-29T17:01:54;9.85;;;2.97;;
48327;SDS011;34136;51.022;7.082;2022-07-29T17:04:40;6.30;;;2.95;;
48327;SDS011;34136;51.022;7.082;2022-07-29T17:07:26;6.15;;;2.60;;
48327;SDS011;34136;51.022;7.082;2022-07-29T17:10:12;7.72;;;3.05;;
48327;SDS011;34136;51.022;7.082;2022-07-29T17:12:58;7.28;;;2.70;;
48327;SDS011;34136;51.022;7.082;2022-07-29T17:15:44;6.68;;;2.60;;
48327;SDS011;34136;51.022;7.082;2022-07-29T17:18:30;7.28;;;2.50;;
48327;SDS011;34136;51.022;7.082;2022-07-29T17:21:16;6.03;;;2.58;;
48327;SDS011;34136;51.022;7.082;2022-07-29T17:24:02;6.88;;;2.70;;
48327;SDS011;34136;51.022;7.082;2022-07-29T17:26:48;8.52;;;2.75;;
48327;SDS011;34136;51.022;7.082;2022-07-29T17:29:34;6.10;;;2.60;;
48327;SDS011;34136;51.022;7.082;2022-07-29T17:32:21;8.02;;;2.38;;
48327;SDS011;34136;51.022;7.082;2022-07-29T17:35:07;6.18;;;2.70;;
48327;SDS011;34136;51.022;7.082;2022-07-29T17:37:54;7.45;;;2.50;;
48327;SDS011;34136;51.022;7.082;2022-07-29T17:40:40;7.70;;;2.50;;
48327;SDS011;34136;51.022;7.082;2022-07-29T17:43:26;7.00;;;2.50;;
48327;SDS011;34136;51.022;7.082;2022-07-29T17:46:13;8.30;;;2.70;;
48327;SDS011;34136;51.022;7.082;2022-07-29T17:48:59;7.00;;;2.45;;
48327;SDS011;34136;51.022;7.082;2022-07-29T17:51:45;5.38;;;2.42;;
48327;SDS011;34136;51.022;7.082;2022-07-29T17:54:31;10.93;;;2.80;;
48327;SDS011;34136;51.022;7.082;2022-07-29T17:57:18;5.57;;;2.47;;
48327;SDS011;34136;51.022;7.082;2022-07-29T18:00:05;8.02;;;3.65;;
48327;SDS011;34136;51.022;7.082;2022-07-29T18:02:52;12.52;;;2.90;;
48327;SDS011;34136;51.022;7.082;2022-07-29T18:05:38;6.45;;;2.50;;
48327;SDS011;34136;51.022;7.082;2022-07-29T18:08:24;8.50;;;2.40;;
48327;SDS011;34136;51.022;7.082;2022-07-29T18:11:10;4.95;;;2.47;;
48327;SDS011;34136;51.022;7.082;2022-07-29T18:13:56;5.30;;;2.40;;
48327;SDS011;34136;51.022;7.082;2022-07-29T18:16:42;9.85;;;2.58;;
48327;SDS011;34136;51.022;7.082;2022-07-29T18:19:28;5.75;;;2.30;;
48327;SDS011;34136;51.022;7.082;2022-07-29T18:22:14;5.95;;;2.50;;
48327;SDS011;34136;51.022;7.082;2022-07-29T18:25:01;4.80;;;2.63;;
48327;SDS011;34136;51.022;7.082;2022-07-29T18:27:49;7.35;;;2.33;;
48327;SDS011;34136;51.022;7.082;2022-07-29T18:30:34;7.72;;;2.53;;
48327;SDS011;34136;51.022;7.082;2022-07-29T18:33:21;7.70;;;2.42;;
48327;SDS011;34136;51.022;7.082;2022-07-29T18:36:07;7.88;;;2.28;;
48327;SDS011;34136;51.022;7.082;2022-07-29T18:38:53;5.78;;;2.70;;
48327;SDS011;34136;51.022;7.082;2022-07-29T18:41:39;8.82;;;2.30;;
48327;SDS011;34136;51.022;7.082;2022-07-29T18:44:25;6.78;;;3.28;;
48327;SDS011;34136;51.022;7.082;2022-07-29T18:47:11;7.85;;;2.75;;
48327;SDS011;34136;51.022;7.082;2022-07-29T18:49:57;10.00;;;2.33;;
48327;SDS011;34136;51.022;7.082;2022-07-29T21:38:34;4.40;;;2.65;;
48327;SDS011;34136;51.022;7.082;2022-07-29T21:41:21;5.97;;;2.70;;
48327;SDS011;34136;51.022;7.082;2022-07-29T21:44:10;5.43;;;2.67;;
48327;SDS011;34136;51.022;7.082;2022-07-29T21:46:56;4.60;;;2.45;;
48327;SDS011;34136;51.022;7.082;2022-07-29T21:49:42;7.07;;;2.80;;
48327;SDS011;34136;51.022;7.082;2022-07-29T21:52:28;6.13;;;2.60;;
48327;SDS011;34136;51.022;7.082;2022-07-29T21:55:14;4.43;;;2.47;;
48327;SDS011;34136;51.022;7.082;2022-07-29T21:58:00;6.30;;;2.80;;
48327;SDS011;34136;51.022;7.082;2022-07-29T22:00:47;5.60;;;2.78;;
48327;SDS011;34136;51.022;7.082;2022-07-29T22:03:33;4.93;;;2.50;;
48327;SDS011;34136;51.022;7.082;2022-07-29T22:06:19;4.95;;;2.65;;
48327;SDS011;34136;51.022;7.082;2022-07-29T22:09:05;6.57;;;2.60;;
48327;SDS011;34136;51.022;7.082;2022-07-29T22:11:52;4.47;;;2.70;;
48327;SDS011;34136;51.022;7.082;2022-07-29T22:14:39;5.88;;;3.00;;
48327;SDS011;34136;51.022;7.082;2022-07-29T22:17:25;6.88;;;2.80;;
48327;SDS011;34136;51.022;7.082;2022-07-29T22:20:11;8.30;;;3.47;;
48327;SDS011;34136;51.022;7.082;2022-07-29T22:22:58;5.18;;;2.67;;
48327;SDS011;34136;51.022;7.082;2022-07-29T22:25:44;7.03;;;2.72;;
48327;SDS011;34136;51.022;7.082;2022-07-29T22:28:30;4.60;;;2.70;;
48327;SDS011;34136;51.022;7.082;2022-07-29T22:31:16;6.75;;;2.53;;
48327;SDS011;34136;51.022;7.082;2022-07-29T22:34:02;6.43;;;2.58;;